createdAt,value
2023-02-12T00:00:03.661Z,98404.28
2023-02-12T00:02:30.592Z,98412.72
2023-02-12T00:04:57.210Z,98419.19
2023-02-12T00:07:24.269Z,98418.38
2023-02-12T00:09:50.881Z,98423.34
2023-02-12T00:12:17.565Z,98419.66
2023-02-12T00:14:44.366Z,98415.03
2023-02-12T00:17:10.972Z,98406.22
2023-02-12T00:19:37.601Z,98401.75
2023-02-12T00:22:04.719Z,98402.56
2023-02-12T00:24:31.367Z,98402.56
2023-02-12T00:26:58.010Z,98412.19
2023-02-12T00:29:25.224Z,98404.09
2023-02-12T00:31:51.883Z,98419.56
2023-02-12T00:34:18.564Z,98408.00
2023-02-12T00:36:45.535Z,98403.22
2023-02-12T00:39:12.406Z,98402.59
2023-02-12T00:41:39.264Z,98401.28
2023-02-12T00:44:06.112Z,98400.44
2023-02-12T00:46:32.736Z,98400.09
2023-02-12T00:48:59.592Z,98394.44
2023-02-12T00:51:26.270Z,98386.94
2023-02-12T00:53:53.152Z,98387.59
2023-02-12T00:56:19.864Z,98380.97
2023-02-12T00:58:46.563Z,98381.66
2023-02-12T01:01:13.281Z,98379.81
2023-02-12T01:03:39.924Z,98372.03
2023-02-12T01:06:06.986Z,98377.97
2023-02-12T01:08:33.773Z,98370.00
2023-02-12T01:11:03.161Z,98365.06
2023-02-12T01:13:31.744Z,98366.72
2023-02-12T01:16:19.456Z,98369.19
2023-02-12T01:18:46.915Z,98362.72
2023-02-12T01:21:19.214Z,98357.22
2023-02-12T01:23:46.683Z,98353.53
2023-02-12T01:26:14.513Z,98351.75
2023-02-12T01:28:42.600Z,98354.19
2023-02-12T01:31:14.478Z,98357.06
2023-02-12T01:33:42.007Z,98359.03
2023-02-12T01:36:09.622Z,98363.19
2023-02-12T01:38:36.240Z,98352.25
2023-02-12T01:41:09.801Z,98371.66
2023-02-12T01:43:37.221Z,98367.56
2023-02-12T01:46:04.905Z,98363.41
2023-02-12T01:48:37.305Z,98366.41
2023-02-12T01:51:04.715Z,98366.59
2023-02-12T01:53:39.429Z,98374.22
2023-02-12T01:56:07.257Z,98369.06
2023-02-12T01:58:41.669Z,98372.38
2023-02-12T02:01:12.648Z,98372.03
2023-02-12T02:03:42.298Z,98368.38
2023-02-12T02:06:12.984Z,98360.22
2023-02-12T02:08:41.640Z,98368.19
2023-02-12T02:11:26.953Z,98361.03
2023-02-12T02:14:15.850Z,98359.03
2023-02-12T02:16:52.051Z,98374.97
2023-02-12T02:19:37.209Z,98374.16
2023-02-12T02:22:06.678Z,98361.88
2023-02-12T02:24:52.264Z,98355.72
2023-02-12T02:28:04.336Z,98355.72
2023-02-12T02:30:54.290Z,98355.72
2023-02-12T02:33:59.621Z,98368.19
2023-02-12T02:36:59.145Z,98363.22
2023-02-12T02:39:36.342Z,98368.53
2023-02-12T02:42:25.083Z,98374.03
2023-02-12T02:45:16.898Z,98373.03
2023-02-12T02:47:48.183Z,98365.06
2023-02-12T02:50:19.055Z,98350.16
2023-02-12T02:52:52.645Z,98350.97
2023-02-12T02:55:22.589Z,98365.72
2023-02-12T02:57:56.340Z,98366.34
2023-02-12T03:00:43.966Z,98372.97
2023-02-12T03:03:25.792Z,98374.97
2023-02-12T03:05:58.956Z,98374.31
2023-02-12T03:08:35.034Z,98369.00
2023-02-12T03:11:11.776Z,98367.19
2023-02-12T03:13:57.232Z,98365.25
2023-02-12T03:16:29.506Z,98377.44
2023-02-12T03:19:15.325Z,98373.97
2023-02-12T03:22:02.756Z,98381.44
2023-02-12T03:24:36.243Z,98387.41
2023-02-12T03:27:23.481Z,98384.28
2023-02-12T03:29:50.229Z,98385.78
2023-02-12T03:32:51.062Z,98396.88
2023-02-12T03:35:23.879Z,98393.19
2023-02-12T03:38:03.523Z,98391.38
2023-02-12T03:40:36.659Z,98389.72
2023-02-12T03:43:10.317Z,98387.88
2023-02-12T03:45:56.594Z,98400.00
2023-02-12T03:48:32.731Z,98408.59
2023-02-12T03:51:05.304Z,98400.16
2023-02-12T03:53:32.749Z,98403.00
2023-02-12T03:56:12.879Z,98410.22
2023-02-12T03:58:43.123Z,98410.22
2023-02-12T04:01:10.234Z,98413.91
2023-02-12T04:03:37.347Z,98408.59
2023-02-12T04:06:04.250Z,98414.72
2023-02-12T04:08:33.650Z,98415.38
2023-02-12T04:11:13.961Z,98414.38
2023-02-12T04:13:40.497Z,98414.38
2023-02-12T04:16:38.207Z,98418.03
2023-02-12T04:19:05.412Z,98422.53
2023-02-12T04:22:07.640Z,98426.16
2023-02-12T04:24:57.934Z,98430.66
2023-02-12T04:27:49.094Z,98423.88
2023-02-12T04:30:29.216Z,98436.13
2023-02-12T04:33:02.055Z,98431.00
2023-02-12T04:35:35.715Z,98429.34
2023-02-12T04:38:26.181Z,98429.34
2023-02-12T04:40:53.792Z,98433.84
2023-02-12T04:43:31.506Z,98438.97
2023-02-12T04:45:58.586Z,98432.81
2023-02-12T04:48:25.448Z,98433.03
2023-02-12T04:50:52.702Z,98430.06
2023-02-12T04:53:19.418Z,98428.75
2023-02-12T04:55:47.727Z,98427.81
2023-02-12T04:58:14.548Z,98435.25
2023-02-12T05:00:41.250Z,98444.69
2023-02-12T05:03:07.827Z,98460.25
2023-02-12T05:05:34.684Z,98457.78
2023-02-12T05:08:01.692Z,98458.63
2023-02-12T05:10:28.318Z,98465.41
2023-02-12T05:12:55.561Z,98453.13
2023-02-12T05:15:22.661Z,98460.59
2023-02-12T05:17:49.376Z,98466.72
2023-02-12T05:20:16.336Z,98476.44
2023-02-12T05:22:43.144Z,98467.31
2023-02-12T05:25:10.071Z,98469.97
2023-02-12T05:27:36.801Z,98462.84
2023-02-12T05:30:05.566Z,98456.19
2023-02-12T05:32:32.187Z,98455.84
2023-02-12T05:34:58.902Z,98459.97
2023-02-12T05:37:25.645Z,98467.94
2023-02-12T05:39:52.217Z,98463.09
2023-02-12T05:42:18.788Z,98481.50
2023-02-12T05:44:45.674Z,98491.75
2023-02-12T05:47:12.333Z,98490.13
2023-02-12T05:49:38.922Z,98497.06
2023-02-12T05:52:05.544Z,98488.44
2023-02-12T05:54:32.126Z,98492.09
2023-02-12T05:56:58.745Z,98500.78
2023-02-12T05:59:25.549Z,98502.59
2023-02-12T06:01:53.065Z,98501.63
2023-02-12T06:04:25.570Z,98512.91
2023-02-12T06:06:53.774Z,98519.03
2023-02-12T06:09:20.533Z,98520.88
2023-02-12T06:11:47.391Z,98522.72
2023-02-12T06:14:16.853Z,98532.31
2023-02-12T06:16:48.821Z,98527.81
2023-02-12T06:19:15.748Z,98542.94
2023-02-12T06:21:42.708Z,98543.13
2023-02-12T06:24:12.604Z,98546.59
2023-02-12T06:26:39.522Z,98551.06
2023-02-12T06:29:06.293Z,98550.22
2023-02-12T06:31:36.182Z,98553.16
2023-02-12T06:34:07.072Z,98551.31
2023-02-12T06:36:34.518Z,98547.69
2023-02-12T06:39:02.951Z,98553.47
2023-02-12T06:41:29.990Z,98562.56
2023-02-12T06:43:56.624Z,98567.72
2023-02-12T06:46:24.096Z,98568.34
2023-02-12T06:48:58.968Z,98561.06
2023-02-12T06:51:27.858Z,98563.31
2023-02-12T06:53:55.754Z,98569.78
2023-02-12T06:56:23.631Z,98568.44
2023-02-12T06:58:56.244Z,98574.22
2023-02-12T07:01:26.163Z,98576.69
2023-02-12T07:04:02.411Z,98574.50
2023-02-12T07:06:31.145Z,98569.03
2023-02-12T07:08:58.508Z,98569.66
2023-02-12T07:11:27.526Z,98567.69
2023-02-12T07:13:54.494Z,98563.19
2023-02-12T07:16:21.745Z,98575.09
2023-02-12T07:18:48.732Z,98574.75
2023-02-12T07:21:16.668Z,98574.88
2023-02-12T07:23:50.841Z,98583.97
2023-02-12T07:26:19.409Z,98591.25
2023-02-12T07:28:46.081Z,98597.22
2023-02-12T07:31:31.277Z,98597.97
2023-02-12T07:33:59.849Z,98594.13
2023-02-12T07:36:29.234Z,98602.75
2023-02-12T07:38:57.678Z,98603.22
2023-02-12T07:41:32.512Z,98603.06
2023-02-12T07:44:09.370Z,98607.72
2023-02-12T07:46:48.138Z,98608.38
2023-02-12T07:49:18.754Z,98603.88
2023-02-12T07:51:46.267Z,98599.66
2023-02-12T07:54:13.832Z,98611.25
2023-02-12T07:56:42.718Z,98613.19
2023-02-12T07:59:14.246Z,98609.16
2023-02-12T08:01:46.256Z,98612.91
2023-02-12T08:04:15.416Z,98607.44
2023-02-12T08:06:47.785Z,98614.97
2023-02-12T08:09:20.594Z,98621.25
2023-02-12T08:11:47.817Z,98618.84
2023-02-12T08:14:17.117Z,98622.78
2023-02-12T08:16:45.434Z,98628.41
2023-02-12T08:19:19.792Z,98629.03
2023-02-12T08:21:53.224Z,98617.13
2023-02-12T08:24:22.031Z,98622.53
2023-02-12T08:26:48.882Z,98626.69
2023-02-12T08:29:18.788Z,98630.16
2023-02-12T08:31:49.020Z,98630.78
2023-02-12T08:34:23.386Z,98628.44
2023-02-12T08:36:51.917Z,98634.47
2023-02-12T08:39:19.040Z,98652.31
2023-02-12T08:41:46.667Z,98654.88
2023-02-12T08:44:13.874Z,98650.38
2023-02-12T08:46:46.785Z,98667.91
2023-02-12T08:49:17.225Z,98662.22
2023-02-12T08:51:46.374Z,98677.66
2023-02-12T08:54:14.956Z,98680.97
2023-02-12T08:56:42.682Z,98683.63
2023-02-12T08:59:10.678Z,98684.72
2023-02-12T09:01:38.668Z,98688.84
2023-02-12T09:04:06.488Z,98687.94
2023-02-12T09:06:35.355Z,98695.34
2023-02-12T09:09:02.758Z,98700.78
2023-02-12T09:11:33.656Z,98700.22
2023-02-12T09:14:06.186Z,98700.91
2023-02-12T09:16:35.234Z,98698.91
2023-02-12T09:19:02.928Z,98698.72
2023-02-12T09:21:29.780Z,98699.25
2023-02-12T09:23:57.087Z,98706.69
2023-02-12T09:26:28.379Z,98712.91
2023-02-12T09:28:55.511Z,98713.81
2023-02-12T09:31:28.749Z,98720.50
2023-02-12T09:33:59.785Z,98720.38
2023-02-12T09:36:26.902Z,98722.75
2023-02-12T09:38:57.881Z,98719.50
2023-02-12T09:41:33.848Z,98726.56
2023-02-12T09:44:21.210Z,98730.97
2023-02-12T09:46:54.072Z,98729.81
2023-02-12T09:49:32.428Z,98726.00
2023-02-12T09:52:00.519Z,98729.41
2023-02-12T09:54:37.698Z,98722.00
2023-02-12T09:57:11.773Z,98725.47
2023-02-12T09:59:47.655Z,98726.38
2023-02-12T10:02:20.452Z,98726.00
2023-02-12T10:05:00.677Z,98729.50
2023-02-12T10:07:43.637Z,98739.66
2023-02-12T10:10:28.795Z,98730.75
2023-02-12T10:13:04.024Z,98723.94
2023-02-12T10:15:58.801Z,98724.03
2023-02-12T10:18:39.123Z,98721.41
2023-02-12T10:21:42.500Z,98717.34
2023-02-12T10:24:18.453Z,98719.59
2023-02-12T10:26:53.115Z,98724.56
2023-02-12T10:29:24.477Z,98719.25
2023-02-12T10:31:55.258Z,98715.97
2023-02-12T10:34:26.073Z,98707.16
2023-02-12T10:36:58.358Z,98714.19
2023-02-12T10:39:32.956Z,98704.13
2023-02-12T10:42:43.119Z,98721.63
2023-02-12T10:45:19.381Z,98719.16
2023-02-12T10:47:50.316Z,98711.53
2023-02-12T10:50:25.864Z,98725.94
2023-02-12T10:52:57.121Z,98727.63
2023-02-12T10:55:27.000Z,98741.25
2023-02-12T10:57:54.558Z,98736.28
2023-02-12T11:00:31.941Z,98741.03
2023-02-12T11:03:04.903Z,98747.22
2023-02-12T11:05:35.856Z,98740.47
2023-02-12T11:08:03.099Z,98730.81
2023-02-12T11:10:38.129Z,98729.78
2023-02-12T11:13:06.190Z,98724.06
2023-02-12T11:15:48.477Z,98722.00
2023-02-12T11:18:27.009Z,98724.03
2023-02-12T11:20:58.110Z,98727.75
2023-02-12T11:23:33.314Z,98711.69
2023-02-12T11:26:20.321Z,98711.69
2023-02-12T11:29:02.319Z,98736.00
2023-02-12T11:31:31.655Z,98741.38
2023-02-12T11:34:21.706Z,98743.81
2023-02-12T11:36:54.300Z,98740.91
2023-02-12T11:39:29.016Z,98741.72
2023-02-12T11:41:59.924Z,98745.84
2023-02-12T11:44:30.170Z,98736.34
2023-02-12T11:47:02.343Z,98726.38
2023-02-12T11:49:32.810Z,98704.47
2023-02-12T11:52:02.498Z,98718.44
2023-02-12T11:54:34.261Z,98713.06
2023-02-12T11:57:02.932Z,98724.63
2023-02-12T11:59:40.995Z,98729.69
2023-02-12T12:02:40.028Z,98738.44
2023-02-12T12:05:15.783Z,98732.88
2023-02-12T12:07:51.014Z,98729.78
2023-02-12T12:10:34.182Z,98725.22
2023-02-12T12:13:06.620Z,98729.16
2023-02-12T12:15:59.141Z,98728.56
2023-02-12T12:18:48.642Z,98728.72
2023-02-12T12:21:34.209Z,98727.25
2023-02-12T12:24:15.008Z,98736.34
2023-02-12T12:26:48.254Z,98740.44
2023-02-12T12:29:26.756Z,98734.88
2023-02-12T12:32:01.713Z,98740.44
2023-02-12T12:34:29.571Z,98728.72
2023-02-12T12:37:03.025Z,98749.94
2023-02-12T12:39:59.335Z,98750.31
2023-02-12T12:42:41.475Z,98748.88
2023-02-12T12:45:14.297Z,98744.56
2023-02-12T12:48:06.309Z,98749.38
2023-02-12T12:50:58.475Z,98749.81
2023-02-12T12:53:37.219Z,98762.19
2023-02-12T12:56:13.246Z,98769.63
2023-02-12T12:59:10.980Z,98773.94
2023-02-12T13:01:47.088Z,98779.09
2023-02-12T13:04:28.612Z,98784.03
2023-02-12T13:07:20.240Z,98772.31
2023-02-12T13:10:14.852Z,98783.22
2023-02-12T13:13:18.432Z,98778.06
2023-02-12T13:16:00.612Z,98772.50
2023-02-12T13:19:15.785Z,98772.06
2023-02-12T13:21:59.443Z,98772.72
2023-02-12T13:24:38.868Z,98753.13
2023-02-12T13:27:37.960Z,98764.03
2023-02-12T13:30:18.028Z,98784.25
2023-02-12T13:33:23.728Z,98785.50
2023-02-12T13:35:55.352Z,98780.31
2023-02-12T13:38:53.737Z,98780.13
2023-02-12T13:41:21.794Z,98782.38
2023-02-12T13:43:59.981Z,98774.94
2023-02-12T13:46:44.479Z,98780.53
2023-02-12T13:49:19.386Z,98779.72
2023-02-12T13:52:28.067Z,98778.88
2023-02-12T13:55:09.538Z,98799.47
2023-02-12T13:57:36.218Z,98789.38
2023-02-12T14:00:08.350Z,98794.75
2023-02-12T14:02:36.633Z,98791.66
2023-02-12T14:05:15.255Z,98797.81
2023-02-12T14:07:47.152Z,98795.31
2023-02-12T14:10:30.528Z,98788.72
2023-02-12T14:13:11.223Z,98794.72
2023-02-12T14:15:48.505Z,98801.72
2023-02-12T14:18:39.899Z,98793.47
2023-02-12T14:21:10.289Z,98800.66
2023-02-12T14:23:37.727Z,98792.41
2023-02-12T14:26:22.665Z,98800.63
2023-02-12T14:29:01.957Z,98802.69
2023-02-12T14:31:37.666Z,98806.84
2023-02-12T14:34:11.316Z,98812.19
2023-02-12T14:36:42.919Z,98804.75
2023-02-12T14:39:24.672Z,98817.13
2023-02-12T14:42:12.556Z,98814.19
2023-02-12T14:44:45.939Z,98808.84
2023-02-12T14:47:34.462Z,98816.44
2023-02-12T14:50:15.381Z,98819.53
2023-02-12T14:52:47.445Z,98830.59
2023-02-12T14:55:24.730Z,98824.81
2023-02-12T14:57:58.554Z,98834.44
2023-02-12T15:00:41.362Z,98833.63
2023-02-12T15:03:18.248Z,98838.91
2023-02-12T15:06:02.078Z,98849.41
2023-02-12T15:08:43.139Z,98850.19
2023-02-12T15:11:39.455Z,98844.59
2023-02-12T15:14:13.711Z,98854.66
2023-02-12T15:17:03.041Z,98858.97
2023-02-12T15:19:46.403Z,98855.41
2023-02-12T15:22:21.210Z,98860.31
2023-02-12T15:24:48.249Z,98840.44
2023-02-12T15:27:16.206Z,98860.75
2023-02-12T15:29:52.936Z,98865.56
2023-02-12T15:32:24.883Z,98860.97
2023-02-12T15:34:52.564Z,98866.88
2023-02-12T15:37:28.880Z,98871.72
2023-02-12T15:40:01.697Z,98866.44
2023-02-12T15:42:30.186Z,98874.38
2023-02-12T15:45:26.922Z,98878.19
2023-02-12T15:48:13.485Z,98894.13
2023-02-12T15:50:47.868Z,98884.28
2023-02-12T15:53:15.802Z,98893.16
2023-02-12T15:55:48.036Z,98893.78
2023-02-12T15:58:25.762Z,98900.25
2023-02-12T16:00:54.812Z,98900.34
2023-02-12T16:03:27.899Z,98912.28
2023-02-12T16:06:02.854Z,98916.22
2023-02-12T16:08:31.877Z,98919.34
2023-02-12T16:10:58.941Z,98917.94
2023-02-12T16:13:34.902Z,98920.50
2023-02-12T16:16:26.947Z,98912.28
2023-02-12T16:19:04.635Z,98934.66
2023-02-12T16:21:31.773Z,98941.91
2023-02-12T16:23:58.471Z,98949.97
2023-02-12T16:26:26.974Z,98952.50
2023-02-12T16:28:56.814Z,98959.53
2023-02-12T16:31:27.072Z,98954.88
2023-02-12T16:33:57.875Z,98958.25
2023-02-12T16:36:24.457Z,98967.25
2023-02-12T16:38:55.518Z,98975.75
2023-02-12T16:41:25.460Z,98974.31
2023-02-12T16:44:01.464Z,98986.59
2023-02-12T16:46:53.510Z,98990.63
2023-02-12T16:49:23.764Z,98986.50
2023-02-12T16:51:52.172Z,98991.38
2023-02-12T16:54:35.874Z,98984.06
2023-02-12T16:57:03.198Z,98985.25
2023-02-12T16:59:29.866Z,99000.75
2023-02-12T17:02:11.028Z,98994.09
2023-02-12T17:04:37.728Z,98997.78
2023-02-12T17:07:05.031Z,98996.50
2023-02-12T17:09:31.930Z,98991.84
2023-02-12T17:11:58.711Z,98996.66
2023-02-12T17:14:25.397Z,99001.66
2023-02-12T17:16:52.644Z,98993.19
2023-02-12T17:19:19.352Z,98991.19
2023-02-12T17:21:49.547Z,98992.19
2023-02-12T17:24:22.327Z,98995.19
2023-02-12T17:26:53.517Z,98988.19
2023-02-12T17:29:22.838Z,98999.16
2023-02-12T17:31:50.901Z,98998.66
2023-02-12T17:34:17.618Z,98995.31
2023-02-12T17:36:45.239Z,99006.13
2023-02-12T17:39:14.725Z,99005.78
2023-02-12T17:41:44.322Z,99007.75
2023-02-12T17:44:13.333Z,99015.91
2023-02-12T17:46:40.122Z,98999.78
2023-02-12T17:49:06.938Z,99032.28
2023-02-12T17:51:33.782Z,99024.81
2023-02-12T17:54:02.478Z,99021.66
2023-02-12T17:56:29.213Z,99039.09
2023-02-12T17:58:56.192Z,99038.75
2023-02-12T18:01:24.194Z,99042.72
2023-02-12T18:03:54.585Z,99037.88
2023-02-12T18:06:24.402Z,99032.75
2023-02-12T18:08:51.770Z,99033.06
2023-02-12T18:11:19.478Z,99037.56
2023-02-12T18:13:46.514Z,99041.53
2023-02-12T18:16:14.271Z,99048.47
2023-02-12T18:18:41.041Z,99041.16
2023-02-12T18:21:10.349Z,99050.13
2023-02-12T18:23:37.736Z,99048.09
2023-02-12T18:26:13.808Z,99053.38
2023-02-12T18:28:41.011Z,99051.53
2023-02-12T18:31:08.985Z,99059.16
2023-02-12T18:33:36.715Z,99067.56
2023-02-12T18:36:14.310Z,99071.84
2023-02-12T18:38:42.372Z,99080.78
2023-02-12T18:41:12.170Z,99079.28
2023-02-12T18:43:39.149Z,99076.13
2023-02-12T18:46:27.252Z,99078.09
2023-02-12T18:48:54.834Z,99088.88
2023-02-12T18:51:27.010Z,99085.69
2023-02-12T18:54:01.689Z,99094.09
2023-02-12T18:56:33.990Z,99091.78
2023-02-12T18:59:04.457Z,99088.44
2023-02-12T19:01:32.391Z,99091.91
2023-02-12T19:04:01.086Z,99096.38
2023-02-12T19:06:29.373Z,99095.50
2023-02-12T19:09:01.763Z,99100.13
2023-02-12T19:11:29.682Z,99102.25
2023-02-12T19:13:56.858Z,99106.03
2023-02-12T19:16:24.830Z,99107.50
2023-02-12T19:18:54.874Z,99113.63
2023-02-12T19:21:23.406Z,99113.63
2023-02-12T19:23:53.100Z,99112.94
2023-02-12T19:26:19.849Z,99106.25
2023-02-12T19:28:47.107Z,99104.78
2023-02-12T19:31:28.793Z,99114.69
2023-02-12T19:33:58.097Z,99106.19
2023-02-12T19:36:26.691Z,99106.50
2023-02-12T19:38:53.802Z,99119.38
2023-02-12T19:41:23.916Z,99131.41
2023-02-12T19:44:00.843Z,99116.28
2023-02-12T19:46:31.069Z,99124.53
2023-02-12T19:49:02.491Z,99124.84
2023-02-12T19:51:30.755Z,99128.78
2023-02-12T19:54:03.101Z,99126.72
2023-02-12T19:56:31.033Z,99133.28
2023-02-12T19:58:58.360Z,99133.59
2023-02-12T20:01:25.921Z,99141.81
2023-02-12T20:03:53.082Z,99146.75
2023-02-12T20:06:23.048Z,99141.75
2023-02-12T20:08:50.452Z,99144.00
2023-02-12T20:11:20.716Z,99142.31
2023-02-12T20:13:48.749Z,99148.75
2023-02-12T20:16:20.166Z,99142.22
2023-02-12T20:18:49.591Z,99137.09
2023-02-12T20:21:22.525Z,99156.44
2023-02-12T20:23:49.762Z,99159.09
2023-02-12T20:26:19.698Z,99161.03
2023-02-12T20:28:47.586Z,99155.22
2023-02-12T20:31:27.688Z,99164.31
2023-02-12T20:34:16.266Z,99171.38
2023-02-12T20:36:46.205Z,99168.19
2023-02-12T20:39:15.970Z,99158.06
2023-02-12T20:41:43.485Z,99156.13
2023-02-12T20:44:15.993Z,99165.78
2023-02-12T20:46:45.747Z,99169.00
2023-02-12T20:49:14.311Z,99168.44
2023-02-12T20:51:41.302Z,99162.63
2023-02-12T20:54:08.443Z,99158.19
2023-02-12T20:56:36.563Z,99164.44
2023-02-12T20:59:04.756Z,99144.28
2023-02-12T21:01:35.123Z,99160.16
2023-02-12T21:04:07.248Z,99163.78
2023-02-12T21:06:34.725Z,99161.97
2023-02-12T21:09:02.145Z,99169.63
2023-02-12T21:11:30.050Z,99163.50
2023-02-12T21:14:12.527Z,99168.78
2023-02-12T21:16:46.047Z,99166.59
2023-02-12T21:19:14.158Z,99164.78
2023-02-12T21:21:42.315Z,99177.16
2023-02-12T21:24:15.970Z,99175.47
2023-02-12T21:26:43.245Z,99178.25
2023-02-12T21:29:10.139Z,99177.28
2023-02-12T21:31:39.792Z,99177.44
2023-02-12T21:34:07.813Z,99182.88
2023-02-12T21:36:37.172Z,99183.28
2023-02-12T21:39:06.170Z,99178.41
2023-02-12T21:41:35.692Z,99192.75
2023-02-12T21:44:12.350Z,99186.50
2023-02-12T21:46:39.759Z,99190.13
2023-02-12T21:49:07.103Z,99185.94
2023-02-12T21:51:37.515Z,99175.81
2023-02-12T21:54:07.466Z,99173.44
2023-02-12T21:56:37.101Z,99184.28
2023-02-12T21:59:04.873Z,99188.19
2023-02-12T22:01:36.604Z,99179.53
2023-02-12T22:04:05.243Z,99185.97
2023-02-12T22:06:32.598Z,99185.41
2023-02-12T22:09:06.888Z,99184.97
2023-02-12T22:11:35.268Z,99187.59
2023-02-12T22:14:01.956Z,99186.66
2023-02-12T22:16:29.327Z,99179.13
2023-02-12T22:18:59.594Z,99176.22
2023-02-12T22:21:31.551Z,99184.41
2023-02-12T22:24:02.393Z,99198.03
2023-02-12T22:26:30.551Z,99197.75
2023-02-12T22:29:04.209Z,99196.34
2023-02-12T22:31:33.807Z,99198.28
2023-02-12T22:34:03.195Z,99197.56
2023-02-12T22:36:31.204Z,99197.72
2023-02-12T22:39:00.119Z,99196.06
2023-02-12T22:41:28.033Z,99198.69
2023-02-12T22:43:55.456Z,99192.03
2023-02-12T22:46:22.716Z,99191.31
2023-02-12T22:48:49.358Z,99189.09
2023-02-12T22:51:25.203Z,99190.06
2023-02-12T22:53:51.884Z,99192.69
2023-02-12T22:56:18.826Z,99200.72
2023-02-12T22:58:47.004Z,99192.97
2023-02-12T23:01:16.398Z,99195.59
2023-02-12T23:03:43.650Z,99201.16
2023-02-12T23:06:16.146Z,99195.16
2023-02-12T23:08:43.509Z,99199.75
2023-02-12T23:11:11.866Z,99199.75
2023-02-12T23:13:39.074Z,99197.09
2023-02-12T23:16:05.840Z,99200.84
2023-02-12T23:18:32.977Z,99191.13
2023-02-12T23:21:00.666Z,99196.53
2023-02-12T23:23:28.162Z,99192.34
2023-02-12T23:25:54.774Z,99186.09
2023-02-12T23:28:22.795Z,99192.47
2023-02-12T23:30:51.027Z,99195.38
2023-02-12T23:33:19.140Z,99200.63
2023-02-12T23:35:46.975Z,99200.06
2023-02-12T23:38:14.119Z,99195.19
2023-02-12T23:40:40.750Z,99194.22
2023-02-12T23:43:07.771Z,99196.28
2023-02-12T23:45:34.790Z,99198.09
2023-02-12T23:48:01.395Z,99191.56
2023-02-12T23:50:28.173Z,99181.38
2023-02-12T23:52:54.843Z,99192.22
2023-02-12T23:55:21.692Z,99186.50
2023-02-12T23:57:50.255Z,99193.00
